Watertown, TN

6:26 PM CDT on September 01, 2014 (GMT -0500)
Smyrna | Change Station
CLOSE
Current Station
Airport
Location: Smyrna,
Elevation: 545 ft
Nearby Weather Stations

Elev 545 ft 36.01 °N, 86.52 °W | Updated 30 minutes ago

Clear
Clear
89 °F
Feels Like 91 °F
N
9
Wind Variable Wind from SW

Today
High -- | Low -- °F
--% Chance of Precip.
Yesterday
High -- | Low -- °F
Precip. -- in
6:16 AM 7:12 PM
Waxing Crescent, 45% visible
Pressure 30.01 in
Visibility 10.0 miles
Clouds Clear
Heat Index 91 °F
Dew Point 66 °F
Humidity 46%
Rainfall 0.00 in
Snow Depth Not available.
UV 1 out of 12
Pollen 11.00 out of 12
Ozone Good
PM2.5 Moderate
Flu Activity Not available.
METAR KMQY 012256Z 22008KT 10SM CLR 32/19 A3000 RMK AO2 T03160188 SLP161

More Conditions Fewer Conditions

Pressure 30.01 in
Visibility 10.0 miles
Clouds Clear
Heat Index 91 °F
Dew Point 66 °F
Humidity 46%
Rainfall 0.00 in
Snow Depth Not available.
UV 1 out of 12
Pollen 11.00 out of 12
Ozone Good
PM2.5 Moderate
Flu Activity Not available.
METAR KMQY 012256Z 22008KT 10SM CLR 32/19 A3000 RMK AO2 T03160188 SLP161

More Conditions Fewer Conditions

10-Day Weather Forecast

Almanac

Astronomy

Sep. 01, 2014 Rise Set
Actual Time 6:16 AM CDT 7:12 PM CDT
Civil Twilight 5:49 AM CDT 7:38 PM CDT
Nautical Twilight 5:18 AM CDT 8:09 PM CDT
Astronomical Twilight 4:46 AM CDT 8:41 PM CDT
Moon 12:49 PM CDT 11:25 PM CDT
Length of Visible Light 13h 48m
Length of Day
12h 55m
Tomorrow will be 2m 12s shorter.
Waxing Crescent, 45% of the Moon is Illuminated
Today
Waxing Crescent
Sep 2
First Quarter
Sep 8
Full
Sep 15
Last Quarter
Sep 24
New

Today's Extremes

State Highs State Lows

Community

WunderPhotos

Upload Photos

1,749,430 photos uploaded!

Nearby

Air Quality

  Air Quality AQ Index Pollutant
Yesterday Good
PM2.5
Yesterday Good
OZONE
Current Moderate
PM2.5
Current Good
OZONE
Monday Good
OZONE
Monday Good
PM2.5
Tuesday Moderate
PM2.5
Tuesday Good
OZONE

Snow Depth

Station Depth Elevation
No new snow has been reported.

Earthquake Activity

City Distance Mag. Time & Date
No recent earthquake activity has been reported nearby.
Minimum magnitude displayed is 2.5.

Coastal Water Temperatures

Place Temperature
No Stations Reporting

Nearby Weather Stations